Time;durP1;ratioP1;P1;durP2;ratioP2;P2;SDS_P1;SDS_P2;PMS_P1;PMS_P2;Temp;Humidity;BMP_temperature;BMP_pressure;BME280_temperature;BME280_humidity;BME280_pressure;Samples;Min_cycle;Max_cycle;Signal;HPM_P1;HPM_P2
2022/11/19 00:00:44;;;;;;;;;;;;;;;17.73;55.32;100649.98;2381457;74;52997;-77
2022/11/19 00:03:45;;;;;;;;;;;;;;;17.67;55.43;100652.00;2382607;74;22707;-78
2022/11/19 00:06:47;;;;;;;;;;;;;;;17.65;55.48;100644.17;2412437;74;50717;-78
2022/11/19 00:09:48;;;;;;;;;;;;;;;17.69;55.42;100640.63;2399105;73;50738;-78
2022/11/19 00:12:56;;;;;;;;;;;;;;;17.77;55.17;100645.41;2356210;74;52612;-78
2022/11/19 00:16:02;;;;;;;;;;;;;;;17.82;55.06;100638.22;2384786;74;51281;-78
2022/11/19 00:19:04;;;;;;;;;;;;;;;17.85;55.02;100640.53;2411070;74;50428;-77
2022/11/19 00:22:05;;;;;;;;;;;;;;;17.87;54.99;100642.53;2412142;74;50626;-78
2022/11/19 00:25:07;;;;;;;;;;;;;;;17.91;54.94;100652.39;2383369;74;50659;-78
2022/11/19 00:28:09;;;;;;;;;;;;;;;17.96;54.82;100654.03;2383926;74;50110;-78
2022/11/19 00:31:11;;;;;;;;;;;;;;;18.00;54.73;100653.47;2412287;74;50657;-79
2022/11/19 00:34:12;;;;;;;;;;;;;;;17.99;54.71;100648.31;2411991;74;49810;-78
2022/11/19 00:37:14;;;;;;;;;;;;;;;18.01;54.63;100655.67;2410824;73;51804;-78
2022/11/19 00:40:16;;;;;;;;;;;;;;;17.96;54.71;100650.84;2376008;73;51505;-78
2022/11/19 00:46:37;;;;;;;;;;;;;;;17.87;54.88;100659.11;2369846;74;22420;-78
2022/11/19 00:49:38;;;;;;;;;;;;;;;17.78;55.11;100666.34;2341884;75;51172;-78
2022/11/19 00:52:40;;;;;;;;;;;;;;;17.74;55.15;100668.52;2369656;74;50607;-78
2022/11/19 00:55:41;;;;;;;;;;;;;;;17.79;55.09;100663.97;2368847;74;51934;-78
2022/11/19 00:58:43;;;;;;;;;;;;;;;17.77;55.12;100667.33;2369658;75;51655;-78
2022/11/19 01:01:45;;;;;;;;;;;;;;;17.79;55.07;100664.83;2342009;75;52501;-78
2022/11/19 01:04:46;;;;;;;;;;;;;;;17.85;54.96;100675.33;2369115;74;51596;-78
2022/11/19 01:07:48;;;;;;;;;;;;;;;17.84;54.97;100673.67;2382778;72;51499;-78
2022/11/19 01:10:49;;;;;;;;;;;;;;;17.90;54.86;100675.62;2384953;73;50788;-78
2022/11/19 01:13:51;;;;;;;;;;;;;;;17.90;54.86;100675.62;2314819;75;52280;-78
2022/11/19 01:16:52;;;;;;;;;;;;;;;17.98;54.70;100676.94;2340720;74;50290;-79
2022/11/19 01:19:54;;;;;;;;;;;;;;;17.99;54.63;100683.95;2369110;75;50682;-78
2022/11/19 01:22:56;;;;;;;;;;;;;;;18.01;54.62;100680.59;2341871;75;50275;-79
2022/11/19 01:25:57;;;;;;;;;;;;;;;17.95;54.67;100675.10;2315278;75;49573;-79
2022/11/19 01:28:59;;;;;;;;;;;;;;;17.89;54.82;100682.52;2341928;75;50660;-78
2022/11/19 01:32:00;;;;;;;;;;;;;;;17.89;54.81;100676.66;2354635;73;50646;-79
2022/11/19 01:35:02;;;;;;;;;;;;;;;17.78;55.00;100677.87;2369998;74;51481;-79
2022/11/19 01:38:04;;;;;;;;;;;;;;;17.72;55.12;100678.55;2386270;73;51655;-79
2022/11/19 01:41:06;;;;;;;;;;;;;;;17.75;55.04;100681.38;2358654;74;50043;-79
2022/11/19 01:44:07;;;;;;;;;;;;;;;17.78;54.97;100683.73;2411792;73;50647;-79
2022/11/19 01:47:09;;;;;;;;;;;;;;;17.80;54.92;100682.58;2412734;73;51394;-79
2022/11/19 01:50:10;;;;;;;;;;;;;;;17.79;54.94;100690.26;2412917;73;50601;-79
2022/11/19 01:53:12;;;;;;;;;;;;;;;17.83;54.85;100682.73;2412293;73;49920;-79
2022/11/19 01:56:14;;;;;;;;;;;;;;;17.89;54.73;100679.84;2413949;73;51529;-79
2022/11/19 01:59:16;;;;;;;;;;;;;;;17.95;54.59;100683.95;2412551;73;51431;-79
2022/11/19 02:02:22;;;;;;;;;;;;;;;17.94;54.65;100691.67;2383904;73;50910;-79
2022/11/19 02:05:21;;;;;;;;;;;;;;;17.98;54.56;100691.66;2380619;73;22369;-79
2022/11/19 02:08:27;;;;;;;;;;;;;;;18.04;54.43;100707.00;2411879;72;51591;-79
2022/11/19 02:11:30;;;;;;;;;;;;;;;18.08;54.27;100702.63;2399840;73;50752;-78
2022/11/19 02:14:33;;;;;;;;;;;;;;;18.01;54.41;100702.52;2386216;73;52556;-79
2022/11/19 02:17:40;;;;;;;;;;;;;;;17.99;54.48;100700.01;2413474;73;51720;-79
2022/11/19 02:20:46;;;;;;;;;;;;;;;17.95;54.52;100708.05;2413638;73;50441;-79
2022/11/19 02:24:06;;;;;;;;;;;;;;;17.88;54.64;100707.13;2413437;73;51557;-79
2022/11/19 02:27:27;;;;;;;;;;;;;;;17.83;54.79;100714.84;2416435;73;51718;-78
2022/11/19 02:30:30;;;;;;;;;;;;;;;17.77;54.87;100716.33;2413636;73;50320;-79
2022/11/19 02:33:36;;;;;;;;;;;;;;;17.72;54.98;100709.84;2409839;73;50294;-78
2022/11/19 02:36:42;;;;;;;;;;;;;;;17.76;54.91;100705.30;2413236;73;50336;-79
2022/11/19 02:39:45;;;;;;;;;;;;;;;17.77;54.89;100703.45;2384626;73;49546;-78
2022/11/19 02:42:48;;;;;;;;;;;;;;;17.90;54.62;100692.20;2408184;73;50673;-78
2022/11/19 02:46:01;;;;;;;;;;;;;;;17.91;54.58;100691.21;2412864;73;50673;-78
2022/11/19 02:49:02;;;;;;;;;;;;;;;17.93;54.52;100687.83;2410310;73;50603;-78
2022/11/19 02:52:04;;;;;;;;;;;;;;;18.00;54.36;100696.82;2412540;73;50673;-79
2022/11/19 02:55:06;;;;;;;;;;;;;;;18.04;54.22;100694.95;2412319;73;50430;-79
2022/11/19 03:04:28;;;;;;;;;;;;;;;18.02;54.24;100692.13;2386943;73;52307;-79
2022/11/19 03:04:34;;;;;;;;;;;;;;;17.97;54.36;100687.30;2413100;73;22578;-78
2022/11/19 03:07:35;;;;;;;;;;;;;;;17.87;54.55;100692.56;2413337;72;50630;-79
2022/11/19 03:10:44;;;;;;;;;;;;;;;17.82;54.62;100686.39;2411054;73;50669;-79
2022/11/19 03:17:15;;;;;;;;;;;;;;;17.74;54.84;100697.13;2412553;73;22145;-79
2022/11/19 03:20:18;;;;;;;;;;;;;;;17.72;54.88;100694.61;2412013;73;50444;-79
2022/11/19 03:23:22;;;;;;;;;;;;;;;17.75;54.80;100704.13;2411783;73;50288;-78
2022/11/19 03:26:27;;;;;;;;;;;;;;;17.75;54.80;100697.44;2412026;73;50339;-79
2022/11/19 03:29:29;;;;;;;;;;;;;;;17.80;54.65;100702.65;2412134;73;50435;-79
2022/11/19 03:32:32;;;;;;;;;;;;;;;17.82;54.57;100707.30;2383401;73;50129;-79
2022/11/19 03:35:35;;;;;;;;;;;;;;;17.85;54.52;100699.42;2411959;73;51448;-78
2022/11/19 03:38:38;;;;;;;;;;;;;;;17.88;54.44;100699.09;2412897;72;51536;-78
2022/11/19 03:41:40;;;;;;;;;;;;;;;17.91;54.36;100702.75;2365323;73;52024;-78
2022/11/19 03:44:43;;;;;;;;;;;;;;;18.01;54.16;100707.36;2368427;75;51525;-79
2022/11/19 03:47:45;;;;;;;;;;;;;;;18.05;54.06;100711.84;2368062;75;51667;-78
2022/11/19 03:50:51;;;;;;;;;;;;;;;18.08;54.00;100716.84;2368616;75;50291;-78
2022/11/19 03:53:52;;;;;;;;;;;;;;;18.10;53.88;100728.72;2366820;74;50397;-78
2022/11/19 03:56:54;;;;;;;;;;;;;;;18.02;54.08;100721.58;2368701;75;50300;-79
2022/11/19 03:59:55;;;;;;;;;;;;;;;17.95;54.20;100720.10;2368124;75;51508;-79
2022/11/19 04:02:57;;;;;;;;;;;;;;;17.91;54.28;100725.50;2367815;74;50737;-79
2022/11/19 04:05:59;;;;;;;;;;;;;;;17.82;54.46;100723.87;2340494;75;51809;-77
2022/11/19 04:09:00;;;;;;;;;;;;;;;17.81;54.47;100720.36;2397164;72;51434;-77
2022/11/19 04:12:02;;;;;;;;;;;;;;;17.77;54.57;100723.53;2366130;73;51456;-78
2022/11/19 04:15:04;;;;;;;;;;;;;;;17.78;54.55;100723.88;2413925;73;50658;-78
2022/11/19 04:18:06;;;;;;;;;;;;;;;17.82;54.43;100727.88;2416500;73;52497;-78
2022/11/19 04:21:07;;;;;;;;;;;;;;;17.87;54.27;100724.17;2414274;73;51509;-77
2022/11/19 04:24:09;;;;;;;;;;;;;;;17.93;54.18;100733.33;2386294;73;53704;-78
2022/11/19 04:27:10;;;;;;;;;;;;;;;17.95;54.14;100725.45;2414273;73;51422;-78
2022/11/19 04:30:12;;;;;;;;;;;;;;;18.01;54.02;100719.41;2360896;73;52535;-78
2022/11/19 04:33:14;;;;;;;;;;;;;;;18.11;53.80;100719.19;2386727;73;50728;-77
2022/11/19 04:36:15;;;;;;;;;;;;;;;18.12;53.75;100719.50;2414363;73;50616;-78
2022/11/19 04:39:17;;;;;;;;;;;;;;;18.10;53.73;100716.16;2398633;73;51449;-78
2022/11/19 04:42:19;;;;;;;;;;;;;;;18.03;53.89;100725.43;2382640;74;52320;-78
2022/11/19 04:45:20;;;;;;;;;;;;;;;17.97;54.00;100726.12;2386127;73;51470;-78
2022/11/19 04:48:22;;;;;;;;;;;;;;;17.94;54.07;100725.14;2412751;73;50313;-78
2022/11/19 04:51:23;;;;;;;;;;;;;;;17.87;54.21;100720.67;2412667;73;51492;-78
2022/11/19 04:54:25;;;;;;;;;;;;;;;17.78;54.38;100713.17;2386490;73;50967;-78
2022/11/19 04:57:26;;;;;;;;;;;;;;;17.72;54.54;100709.33;2386632;73;50267;-78
2022/11/19 05:00:28;;;;;;;;;;;;;;;17.72;54.53;100713.86;2412672;73;50380;-78
2022/11/19 05:03:30;;;;;;;;;;;;;;;17.75;54.48;100706.33;2412605;73;50582;-78
2022/11/19 05:06:32;;;;;;;;;;;;;;;17.79;54.38;100702.78;2386774;73;50843;-78
2022/11/19 05:09:33;;;;;;;;;;;;;;;17.81;54.30;100697.61;2378663;73;50305;-78
2022/11/19 05:12:35;;;;;;;;;;;;;;;17.87;54.22;100701.42;2408522;74;50203;-78
2022/11/19 05:15:37;;;;;;;;;;;;;;;17.88;54.12;100706.27;2410986;73;50866;-78
2022/11/19 05:18:38;;;;;;;;;;;;;;;17.87;54.13;100696.06;2388357;74;52454;-78
2022/11/19 05:21:40;;;;;;;;;;;;;;;17.92;54.03;100695.03;2407465;74;50732;-78
2022/11/19 05:24:41;;;;;;;;;;;;;;;18.00;53.85;100688.79;2408131;74;50652;-78
2022/11/19 05:27:43;;;;;;;;;;;;;;;18.01;53.85;100690.47;2411046;73;51453;-78
2022/11/19 05:30:44;;;;;;;;;;;;;;;18.06;53.71;100688.92;2404219;74;52549;-78
2022/11/19 05:33:46;;;;;;;;;;;;;;;18.10;53.63;100691.23;2408152;74;51488;-78
2022/11/19 05:36:48;;;;;;;;;;;;;;;18.11;53.58;100695.09;2408383;74;49915;-78
2022/11/19 05:39:49;;;;;;;;;;;;;;;18.03;53.72;100689.28;2409142;72;50341;-78
2022/11/19 05:42:51;;;;;;;;;;;;;;;18.00;53.78;100685.59;2411426;73;50287;-78
2022/11/19 05:45:52;;;;;;;;;;;;;;;17.96;53.85;100685.64;2387732;73;50675;-78
2022/11/19 05:48:54;;;;;;;;;;;;;;;17.91;53.92;100689.36;2414354;73;50261;-78
2022/11/19 05:51:56;;;;;;;;;;;;;;;17.81;54.12;100692.26;2413196;73;50340;-78
2022/11/19 05:54:57;;;;;;;;;;;;;;;17.80;54.18;100695.96;2360318;73;51683;-78
2022/11/19 05:57:59;;;;;;;;;;;;;;;17.79;54.17;100698.28;2388242;73;50246;-78
2022/11/19 06:01:00;;;;;;;;;;;;;;;17.82;54.16;100705.95;2413949;73;50629;-78
2022/11/19 06:04:02;;;;;;;;;;;;;;;17.85;54.07;100704.77;2385550;73;50843;-78
2022/11/19 06:07:03;;;;;;;;;;;;;;;17.92;53.98;100704.91;2416009;73;50784;-78
2022/11/19 06:10:05;;;;;;;;;;;;;;;17.97;53.83;100703.36;2382957;73;51508;-79
2022/11/19 06:13:07;;;;;;;;;;;;;;;18.01;53.75;100710.05;2414229;73;51424;-78
2022/11/19 06:16:08;;;;;;;;;;;;;;;18.07;53.59;100703.14;2413718;73;51370;-78
2022/11/19 06:19:10;;;;;;;;;;;;;;;18.13;53.43;100704.27;2416572;73;52343;-78
2022/11/19 06:22:12;;;;;;;;;;;;;;;18.09;53.45;100707.81;2414602;73;51487;-80
2022/11/19 06:25:13;;;;;;;;;;;;;;;18.04;53.58;100706.17;2413648;73;50387;-77
2022/11/19 06:28:15;;;;;;;;;;;;;;;17.99;53.63;100704.02;2388496;73;51533;-78
2022/11/19 06:31:17;;;;;;;;;;;;;;;17.89;53.85;100711.96;2387710;73;49584;-78
2022/11/19 06:34:18;;;;;;;;;;;;;;;17.81;54.00;100696.78;2414757;73;51481;-78
2022/11/19 06:37:20;;;;;;;;;;;;;;;17.79;54.10;100701.44;2383347;73;51437;-78
2022/11/19 06:40:21;;;;;;;;;;;;;;;17.80;54.04;100705.33;2376807;73;49846;-78
2022/11/19 06:43:23;;;;;;;;;;;;;;;17.75;54.15;100704.13;2315152;74;49654;-78
2022/11/19 06:46:25;;;;;;;;;;;;;;;17.81;54.05;100695.45;2342289;75;50361;-78
2022/11/19 06:49:26;;;;;;;;;;;;;;;17.86;53.91;100698.94;2342096;74;50644;-78
2022/11/19 06:52:28;;;;;;;;;;;;;;;17.90;53.85;100702.40;2341603;75;50649;-77
2022/11/19 06:55:29;;;;;;;;;;;;;;;17.87;53.87;100701.93;2314904;75;51642;-78
2022/11/19 06:58:31;;;;;;;;;;;;;;;17.91;53.75;100694.72;2369122;74;51512;-77
2022/11/19 07:01:32;;;;;;;;;;;;;;;17.93;53.70;100702.06;2369131;75;51528;-77
2022/11/19 07:04:34;;;;;;;;;;;;;;;17.95;53.68;100705.89;2341292;75;50183;-78
2022/11/19 07:07:36;;;;;;;;;;;;;;;18.01;53.56;100698.50;2318237;73;49667;-78
2022/11/19 07:10:37;;;;;;;;;;;;;;;18.08;53.41;100699.95;2379881;73;50784;-78
2022/11/19 07:13:57;;;;;;;;;;;;;;;18.12;53.33;100705.28;2381766;73;50739;-78
2022/11/19 07:16:58;;;;;;;;;;;;;;;18.13;53.29;100710.44;2382971;73;51476;-77
2022/11/19 07:20:00;;;;;;;;;;;;;;;18.14;53.28;100713.98;2370363;73;51002;-77
2022/11/19 07:23:02;;;;;;;;;;;;;;;18.10;53.33;100718.02;2386806;73;51383;-77
2022/11/19 07:26:03;;;;;;;;;;;;;;;18.04;53.47;100706.17;2412439;73;50337;-78
2022/11/19 07:29:05;;;;;;;;;;;;;;;17.99;53.56;100695.99;2412824;73;50414;-78
2022/11/19 07:32:07;;;;;;;;;;;;;;;17.94;53.70;100709.08;2386878;73;51028;-78
2022/11/19 07:35:09;;;;;;;;;;;;;;;17.94;53.65;100702.38;2386712;73;50633;-78
2022/11/19 07:38:10;;;;;;;;;;;;;;;17.86;53.84;100705.13;2412897;72;51474;-78
2022/11/19 07:44:31;;;;;;;;;;;;;;;17.90;53.84;100713.11;2412854;73;22438;-78
2022/11/19 07:47:33;;;;;;;;;;;;;;;18.00;53.62;100707.53;2386494;73;50257;-78
2022/11/19 07:50:35;;;;;;;;;;;;;;;18.03;53.54;100715.20;2412583;73;51532;-78
2022/11/19 07:53:37;;;;;;;;;;;;;;;18.06;53.46;100704.98;2412667;73;52303;-78
2022/11/19 07:56:39;;;;;;;;;;;;;;;18.09;53.32;100706.47;2385412;73;51678;-79
2022/11/19 07:59:40;;;;;;;;;;;;;;;18.20;53.09;100702.54;2413142;73;51565;-79
2022/11/19 08:02:42;;;;;;;;;;;;;;;18.19;53.09;100707.58;2412026;73;51584;-78
2022/11/19 08:05:43;;;;;;;;;;;;;;;18.12;53.24;100695.40;2386508;73;52582;-78
2022/11/19 08:08:45;;;;;;;;;;;;;;;18.11;53.24;100689.73;2382471;73;52457;-78
2022/11/19 08:11:47;;;;;;;;;;;;;;;18.07;53.37;100687.07;2395404;74;50722;-78
2022/11/19 08:14:48;;;;;;;;;;;;;;;17.99;53.48;100681.78;2404225;73;50455;-78
2022/11/19 08:21:10;;;;;;;;;;;;;;;17.84;53.85;100681.19;2381974;73;24406;-78
2022/11/19 08:24:12;;;;;;;;;;;;;;;17.79;53.98;100666.17;2382842;73;50512;-78
2022/11/19 08:27:14;;;;;;;;;;;;;;;17.91;53.72;100666.61;2411826;73;52308;-78
2022/11/19 08:30:16;;;;;;;;;;;;;;;17.89;53.73;100670.47;2375066;73;50728;-78
2022/11/19 08:33:17;;;;;;;;;;;;;;;17.91;53.65;100670.63;2377588;73;51037;-78
2022/11/19 08:36:19;;;;;;;;;;;;;;;17.96;53.55;100664.23;2412151;73;51521;-78
2022/11/19 08:39:20;;;;;;;;;;;;;;;17.99;53.50;100669.73;2412669;72;51384;-77
2022/11/19 08:45:41;;;;;;;;;;;;;;;18.06;53.36;100670.69;2414277;73;22157;-77
2022/11/19 08:48:43;;;;;;;;;;;;;;;18.10;53.28;100667.13;2387068;73;51523;-77
2022/11/19 08:51:45;;;;;;;;;;;;;;;18.12;53.27;100675.83;2414036;73;50684;-77
2022/11/19 08:54:47;;;;;;;;;;;;;;;18.17;53.18;100670.25;2387635;73;51490;-77
2022/11/19 08:57:49;;;;;;;;;;;;;;;18.23;53.03;100672.72;2414358;73;50672;-77
2022/11/19 09:00:50;;;;;;;;;;;;;;;18.25;52.93;100665.34;2388180;73;49625;-77
2022/11/19 09:03:52;;;;;;;;;;;;;;;18.19;53.04;100666.07;2388104;73;50233;-78
2022/11/19 09:06:53;;;;;;;;;;;;;;;18.10;53.23;100661.27;2414262;73;50631;-78
2022/11/19 09:09:55;;;;;;;;;;;;;;;18.12;53.16;100666.45;2383221;73;51510;-78
2022/11/19 09:12:56;;;;;;;;;;;;;;;18.03;53.38;100667.86;2354892;74;50015;-78
2022/11/19 09:15:58;;;;;;;;;;;;;;;17.96;53.51;100662.89;2410233;74;51609;-78
2022/11/19 09:19:01;;;;;;;;;;;;;;;17.90;53.69;100667.59;2410569;74;51271;-78
2022/11/19 09:22:02;;;;;;;;;;;;;;;17.93;53.61;100667.27;2382246;74;50389;-78
2022/11/19 09:25:04;;;;;;;;;;;;;;;17.95;53.54;100659.87;2381681;74;51632;-78
2022/11/19 09:28:05;;;;;;;;;;;;;;;18.01;53.46;100672.56;2381938;74;49988;-78
2022/11/19 09:31:11;;;;;;;;;;;;;;;18.03;53.40;100671.88;2410629;74;50210;-78
2022/11/19 09:34:12;;;;;;;;;;;;;;;18.10;53.25;100671.15;2381945;74;51558;-78
2022/11/19 09:37:14;;;;;;;;;;;;;;;18.17;53.07;100670.25;2409880;73;51654;-78
2022/11/19 09:40:17;;;;;;;;;;;;;;;18.27;52.88;100674.03;2379354;73;51398;-78
2022/11/19 09:43:23;;;;;;;;;;;;;;;18.25;52.86;100668.02;2369486;75;50299;-78
2022/11/19 09:46:38;;;;;;;;;;;;;;;18.19;52.98;100674.11;2369491;75;50373;-78
2022/11/19 09:49:51;;;;;;;;;;;;;;;18.11;53.12;100669.64;2342249;75;51777;-78
2022/11/19 09:52:57;;;;;;;;;;;;;;;18.09;53.17;100670.84;2369851;75;51679;-78
2022/11/19 09:55:59;;;;;;;;;;;;;;;17.97;53.43;100669.89;2369542;75;50397;-78
2022/11/19 09:59:02;;;;;;;;;;;;;;;17.91;53.61;100667.95;2369864;75;51473;-78
2022/11/19 10:02:06;;;;;;;;;;;;;;;17.87;53.66;100654.58;2342363;75;49716;-78
2022/11/19 10:05:07;;;;;;;;;;;;;;;17.89;53.66;100653.90;2367896;74;50348;-78
2022/11/19 10:08:11;;;;;;;;;;;;;;;17.88;53.67;100653.59;2387832;72;50289;-78
2022/11/19 10:11:17;;;;;;;;;;;;;;;17.94;53.59;100650.19;2411637;73;51521;-79
2022/11/19 10:14:37;;;;;;;;;;;;;;;17.93;53.58;100657.90;2387533;73;51753;-78
2022/11/19 10:17:40;;;;;;;;;;;;;;;17.98;53.42;100647.48;2414294;73;50255;-78
2022/11/19 10:20:49;;;;;;;;;;;;;;;18.00;53.41;100644.09;2414283;73;50719;-78
2022/11/19 10:23:54;;;;;;;;;;;;;;;18.02;53.34;100622.52;2414320;73;50311;-78
2022/11/19 10:26:59;;;;;;;;;;;;;;;18.08;53.29;100631.66;2388963;73;22213;-78
2022/11/19 10:30:02;;;;;;;;;;;;;;;18.13;53.13;100619.40;2414435;73;51523;-78
2022/11/19 10:33:08;;;;;;;;;;;;;;;18.17;53.03;100614.53;2414245;73;50320;-78
2022/11/19 10:36:11;;;;;;;;;;;;;;;18.23;52.93;100616.47;2398682;73;50442;-78
2022/11/19 10:39:15;;;;;;;;;;;;;;;18.21;52.90;100610.45;2407664;73;50465;-78
2022/11/19 10:42:20;;;;;;;;;;;;;;;18.16;53.02;100622.22;2414132;73;50436;-78
2022/11/19 10:45:23;;;;;;;;;;;;;;;18.14;53.07;100614.90;2414234;73;50763;-78
2022/11/19 10:48:25;;;;;;;;;;;;;;;18.09;53.15;100611.41;2414197;73;50773;-77
2022/11/19 10:51:28;;;;;;;;;;;;;;;17.99;53.35;100604.97;2388316;73;51179;-78
2022/11/19 10:54:29;;;;;;;;;;;;;;;18.00;53.35;100594.57;2413843;73;51543;-78
2022/11/19 10:57:32;;;;;;;;;;;;;;;17.94;53.48;100592.63;2413909;73;50268;-78
2022/11/19 11:00:34;;;;;;;;;;;;;;;17.93;53.51;100581.61;2414476;73;51496;-78
2022/11/19 11:03:40;;;;;;;;;;;;;;;17.95;53.47;100583.57;2414026;73;50627;-78
2022/11/19 11:07:00;;;;;;;;;;;;;;;17.96;53.47;100590.61;2397485;73;50673;-78
2022/11/19 11:10:02;;;;;;;;;;;;;;;18.12;53.15;100585.61;2396517;73;50725;-79
2022/11/19 11:16:30;;;;;;;;;;;;;;;18.18;52.97;100578.69;2361102;75;22313;-77
2022/11/19 11:19:31;;;;;;;;;;;;;;;18.22;52.83;100570.62;2367820;75;50069;-77
2022/11/19 11:22:33;;;;;;;;;;;;;;;18.18;52.91;100569.31;2369113;75;50372;-77
2022/11/19 11:25:34;;;;;;;;;;;;;;;18.14;53.01;100567.52;2368648;75;50633;-77
2022/11/19 11:28:36;;;;;;;;;;;;;;;18.13;53.02;100563.67;2341349;75;50996;-77
2022/11/19 11:31:41;;;;;;;;;;;;;;;18.09;53.08;100555.70;2368891;75;51559;-78
2022/11/19 11:34:42;;;;;;;;;;;;;;;17.96;53.36;100550.45;2368597;75;51650;-78
2022/11/19 11:37:44;;;;;;;;;;;;;;;17.94;53.45;100552.47;2378815;73;51608;-77
2022/11/19 11:40:59;;;;;;;;;;;;;;;17.94;53.48;100545.78;2375698;73;52271;-79
2022/11/19 11:44:02;;;;;;;;;;;;;;;17.96;53.45;100550.45;2408522;74;50930;-78
2022/11/19 11:47:04;;;;;;;;;;;;;;;17.94;53.48;100544.95;2408544;74;51548;-78
2022/11/19 11:50:06;;;;;;;;;;;;;;;17.98;53.39;100536.38;2408631;74;50755;-79
2022/11/19 11:53:08;;;;;;;;;;;;;;;18.02;53.28;100531.48;2395992;73;50139;-78
2022/11/19 11:56:10;;;;;;;;;;;;;;;18.08;53.20;100540.62;2373549;74;51479;-78
2022/11/19 11:59:27;;;;;;;;;;;;;;;18.05;53.22;100537.81;2385446;74;51519;-80
2022/11/19 12:02:30;;;;;;;;;;;;;;;18.12;53.11;100537.41;2408574;74;50541;-78
2022/11/19 12:05:50;;;;;;;;;;;;;;;18.19;52.88;100536.19;2384959;74;51241;-79
2022/11/19 12:09:08;;;;;;;;;;;;;;;18.20;52.92;100539.17;2414546;72;51772;-78
2022/11/19 12:12:11;;;;;;;;;;;;;;;18.27;52.76;100533.42;2374803;74;50822;-78
2022/11/19 12:15:14;;;;;;;;;;;;;;;18.27;52.77;100538.77;2365555;75;50692;-78
2022/11/19 12:18:18;;;;;;;;;;;;;;;18.28;52.75;100529.71;2343032;75;51743;-79
2022/11/19 12:21:24;;;;;;;;;;;;;;;18.17;52.95;100539.55;2355944;75;50828;-78
2022/11/19 12:24:27;;;;;;;;;;;;;;;18.18;52.91;100541.20;2368251;75;50689;-78
2022/11/19 12:27:48;;;;;;;;;;;;;;;18.11;53.10;100533.56;2371529;75;50688;-78
2022/11/19 12:30:57;;;;;;;;;;;;;;;18.03;53.25;100539.83;2262391;78;52798;-77
2022/11/19 12:34:00;;;;;;;;;;;;;;;17.96;53.39;100543.76;2288081;78;50828;-78
2022/11/19 12:37:21;;;;;;;;;;;;;;;17.95;53.45;100539.40;2285842;78;50733;-78
2022/11/19 12:40:30;;;;;;;;;;;;;;;17.99;53.38;100537.21;2285984;78;50232;-78
2022/11/19 12:43:48;;;;;;;;;;;;;;;18.00;53.32;100526.81;2261065;78;50121;-78
2022/11/19 12:46:52;;;;;;;;;;;;;;;18.06;53.20;100533.62;2286038;78;50875;-78
2022/11/19 12:50:10;;;;;;;;;;;;;;;18.10;53.16;100533.25;2286106;78;50317;-78
2022/11/19 12:53:17;;;;;;;;;;;;;;;18.15;53.01;100531.69;2286039;77;21781;-78
2022/11/19 12:56:37;;;;;;;;;;;;;;;18.25;52.81;100530.08;2260425;78;52397;-78
2022/11/19 12:59:43;;;;;;;;;;;;;;;18.26;52.75;100530.39;2286192;78;51479;-79
2022/11/19 13:02:49;;;;;;;;;;;;;;;18.19;52.85;100524.14;2390858;73;50320;-79
2022/11/19 13:05:52;;;;;;;;;;;;;;;18.13;52.95;100519.49;2412553;73;50306;-78
2022/11/19 13:09:05;;;;;;;;;;;;;;;18.07;53.09;100522.40;2384389;73;51993;-78
2022/11/19 13:12:14;;;;;;;;;;;;;;;18.03;53.17;100522.42;2369699;73;50749;-78
2022/11/19 13:15:22;;;;;;;;;;;;;;;17.97;53.29;100521.31;2368798;75;50470;-79
2022/11/19 13:18:24;;;;;;;;;;;;;;;17.91;53.47;100514.54;2369797;75;51573;-79
2022/11/19 13:21:27;;;;;;;;;;;;;;;17.93;53.45;100515.16;2369389;74;52341;-78
2022/11/19 13:24:31;;;;;;;;;;;;;;;17.97;53.32;100513.28;2369727;75;50491;-78
2022/11/19 13:27:32;;;;;;;;;;;;;;;17.98;53.32;100512.30;2369774;75;50443;-78
2022/11/19 13:30:34;;;;;;;;;;;;;;;18.03;53.21;100512.58;2342052;73;50252;-78
2022/11/19 13:33:40;;;;;;;;;;;;;;;18.05;53.13;100507.84;2371960;75;51147;-79
2022/11/19 13:36:42;;;;;;;;;;;;;;;18.05;53.15;100511.86;2369841;75;50272;-79
2022/11/19 13:39:45;;;;;;;;;;;;;;;18.09;53.10;100508.33;2377624;73;51423;-79
2022/11/19 13:46:11;;;;;;;;;;;;;;;18.16;52.89;100515.10;2369416;75;22369;-79
2022/11/19 13:49:32;;;;;;;;;;;;;;;18.24;52.72;100517.20;2369091;75;51569;-79
2022/11/19 13:52:36;;;;;;;;;;;;;;;18.29;52.60;100513.98;2369474;75;51488;-78
2022/11/19 13:55:38;;;;;;;;;;;;;;;18.25;52.68;100503.30;2369009;75;50264;-78
2022/11/19 13:58:45;;;;;;;;;;;;;;;18.19;52.78;100510.74;2341194;75;51039;-78
2022/11/19 14:01:48;;;;;;;;;;;;;;;18.14;52.88;100502.43;2368255;74;50052;-78
2022/11/19 14:04:51;;;;;;;;;;;;;;;18.06;53.04;100504.17;2368956;75;50298;-78
2022/11/19 14:07:57;;;;;;;;;;;;;;;18.06;53.00;100500.67;2368114;75;50407;-78
2022/11/19 14:11:06;;;;;;;;;;;;;;;17.97;53.22;100503.91;2361507;73;51728;-78
2022/11/19 14:27:47;;;;;;;;;;;;;;;18.06;53.05;100505.52;2412829;73;24532;-78
2022/11/19 14:31:02;;;;;;;;;;;;;;;18.18;52.77;100511.23;2412469;73;50707;-80
2022/11/19 14:34:04;;;;;;;;;;;;;;;18.21;52.71;100514.91;2412352;73;50199;-79
2022/11/19 14:37:16;;;;;;;;;;;;;;;18.26;52.56;100514.33;2354227;73;52426;-79
2022/11/19 14:40:19;;;;;;;;;;;;;;;18.20;52.66;100503.02;2383928;73;51336;-79
2022/11/19 14:46:44;;;;;;;;;;;;;;;18.12;52.84;100506.62;2369823;74;22444;-78
2022/11/19 14:49:46;;;;;;;;;;;;;;;18.03;52.95;100499.19;2341684;75;50080;-78
2022/11/19 14:52:51;;;;;;;;;;;;;;;17.98;53.05;100497.56;2369318;75;50310;-79
2022/11/19 14:55:52;;;;;;;;;;;;;;;17.91;53.23;100503.31;2369088;74;51457;-78
2022/11/19 14:58:56;;;;;;;;;;;;;;;17.91;53.28;100497.97;2369257;74;51432;-78
2022/11/19 15:01:58;;;;;;;;;;;;;;;17.92;53.26;100498.79;2341784;74;51292;-78
2022/11/19 15:05:05;;;;;;;;;;;;;;;17.96;53.17;100502.78;2369013;75;51462;-79
2022/11/19 15:08:17;;;;;;;;;;;;;;;17.94;53.23;100498.93;2357652;73;50678;-78
2022/11/19 15:11:19;;;;;;;;;;;;;;;17.98;53.13;100505.59;2411801;73;50676;-79
2022/11/19 15:14:34;;;;;;;;;;;;;;;17.99;53.06;100501.89;2385685;73;49583;-78
2022/11/19 15:17:36;;;;;;;;;;;;;;;18.07;52.88;100499.64;2413040;73;50443;-78
2022/11/19 15:20:42;;;;;;;;;;;;;;;18.06;52.89;100497.48;2412813;73;50225;-78
2022/11/19 15:23:45;;;;;;;;;;;;;;;18.16;52.68;100488.33;2412462;73;51637;-79
2022/11/19 15:26:49;;;;;;;;;;;;;;;18.18;52.65;100489.80;2385998;73;52799;-78
2022/11/19 15:29:52;;;;;;;;;;;;;;;18.21;52.61;100488.13;2410898;73;50294;-78
2022/11/19 15:32:58;;;;;;;;;;;;;;;18.26;52.53;100496.91;2412836;73;50674;-78
2022/11/19 15:36:04;;;;;;;;;;;;;;;18.24;52.50;100489.59;2412520;73;52202;-78
2022/11/19 15:39:10;;;;;;;;;;;;;;;18.20;52.60;100482.94;2367035;73;50100;-77
2022/11/19 15:42:14;;;;;;;;;;;;;;;18.13;52.74;100477.98;2387323;72;50422;-78
2022/11/19 15:45:16;;;;;;;;;;;;;;;18.06;52.88;100485.43;2406994;73;50377;-78
2022/11/19 15:48:19;;;;;;;;;;;;;;;18.02;52.97;100480.62;2412042;73;51679;-79
2022/11/19 15:51:21;;;;;;;;;;;;;;;17.96;53.07;100478.17;2386919;73;51523;-79
2022/11/19 15:54:28;;;;;;;;;;;;;;;17.96;53.10;100483.53;2386657;73;51231;-78
2022/11/19 15:57:30;;;;;;;;;;;;;;;17.96;53.11;100483.53;2411855;73;50369;-78
2022/11/19 16:00:31;;;;;;;;;;;;;;;17.98;53.08;100477.97;2412426;73;50380;-78
2022/11/19 16:03:33;;;;;;;;;;;;;;;18.04;52.93;100474.06;2359421;73;51631;-79
2022/11/19 16:06:34;;;;;;;;;;;;;;;18.08;52.80;100475.86;2387797;73;51455;-78
2022/11/19 16:09:36;;;;;;;;;;;;;;;18.14;52.71;100481.01;2412664;73;51504;-78
2022/11/19 16:19:17;;;;;;;;;;;;;;;18.16;52.56;100465.56;2353939;75;22232;-77
2022/11/19 16:22:18;;;;;;;;;;;;;;;18.13;52.62;100472.63;2353890;74;50635;-78
2022/11/19 16:25:22;;;;;;;;;;;;;;;18.05;52.80;100466.34;2368015;75;51363;-78
2022/11/19 16:28:24;;;;;;;;;;;;;;;18.00;52.92;100466.58;2342975;74;51018;-79
2022/11/19 16:31:27;;;;;;;;;;;;;;;17.92;53.08;100464.81;2370290;73;51488;-78